sensor_id;sensor_type;location;lat;lon;timestamp;P1;durP1;ratioP1;P2;durP2;ratioP2
84943;SDS011;75231;53.650;9.788;2024-02-28T00:01:58;31.10;;;14.52;;
84943;SDS011;75231;53.650;9.788;2024-02-28T00:04:24;26.85;;;14.40;;
84943;SDS011;75231;53.650;9.788;2024-02-28T00:06:49;31.17;;;14.38;;
84943;SDS011;75231;53.650;9.788;2024-02-28T00:09:14;32.45;;;15.52;;
84943;SDS011;75231;53.650;9.788;2024-02-28T00:11:43;29.02;;;14.77;;
84943;SDS011;75231;53.650;9.788;2024-02-28T00:14:09;36.55;;;16.38;;
84943;SDS011;75231;53.650;9.788;2024-02-28T00:16:35;29.52;;;14.32;;
84943;SDS011;75231;53.650;9.788;2024-02-28T00:19:00;30.60;;;15.23;;
84943;SDS011;75231;53.650;9.788;2024-02-28T00:21:26;33.85;;;16.83;;
84943;SDS011;75231;53.650;9.788;2024-02-28T00:23:51;29.42;;;14.23;;
84943;SDS011;75231;53.650;9.788;2024-02-28T00:26:17;30.25;;;15.00;;
84943;SDS011;75231;53.650;9.788;2024-02-28T00:28:42;30.85;;;14.63;;
84943;SDS011;75231;53.650;9.788;2024-02-28T00:31:07;35.08;;;17.00;;
84943;SDS011;75231;53.650;9.788;2024-02-28T00:33:32;32.05;;;15.65;;
84943;SDS011;75231;53.650;9.788;2024-02-28T00:35:58;28.23;;;14.07;;
84943;SDS011;75231;53.650;9.788;2024-02-28T00:38:23;32.03;;;15.38;;
84943;SDS011;75231;53.650;9.788;2024-02-28T00:40:48;34.33;;;16.05;;
84943;SDS011;75231;53.650;9.788;2024-02-28T00:43:13;33.92;;;16.35;;
84943;SDS011;75231;53.650;9.788;2024-02-28T00:45:39;32.67;;;14.23;;
84943;SDS011;75231;53.650;9.788;2024-02-28T00:48:04;28.38;;;14.40;;
84943;SDS011;75231;53.650;9.788;2024-02-28T00:50:30;30.27;;;14.57;;
84943;SDS011;75231;53.650;9.788;2024-02-28T00:52:55;30.30;;;15.02;;
84943;SDS011;75231;53.650;9.788;2024-02-28T00:55:20;32.20;;;15.45;;
84943;SDS011;75231;53.650;9.788;2024-02-28T00:57:46;29.92;;;14.90;;
84943;SDS011;75231;53.650;9.788;2024-02-28T01:00:11;29.08;;;14.95;;
84943;SDS011;75231;53.650;9.788;2024-02-28T01:02:36;31.73;;;15.55;;
84943;SDS011;75231;53.650;9.788;2024-02-28T01:05:02;33.28;;;15.45;;
84943;SDS011;75231;53.650;9.788;2024-02-28T01:07:27;30.08;;;15.18;;
84943;SDS011;75231;53.650;9.788;2024-02-28T01:09:53;30.70;;;15.20;;
84943;SDS011;75231;53.650;9.788;2024-02-28T01:12:18;30.52;;;15.27;;
84943;SDS011;75231;53.650;9.788;2024-02-28T01:14:44;31.63;;;16.65;;
84943;SDS011;75231;53.650;9.788;2024-02-28T01:17:09;31.60;;;13.32;;
84943;SDS011;75231;53.650;9.788;2024-02-28T01:19:34;28.38;;;13.80;;
84943;SDS011;75231;53.650;9.788;2024-02-28T01:22:00;30.38;;;14.10;;
84943;SDS011;75231;53.650;9.788;2024-02-28T01:24:25;29.00;;;13.13;;
84943;SDS011;75231;53.650;9.788;2024-02-28T01:26:51;30.42;;;14.65;;
84943;SDS011;75231;53.650;9.788;2024-02-28T01:29:16;30.05;;;14.68;;
84943;SDS011;75231;53.650;9.788;2024-02-28T01:31:41;27.80;;;14.60;;
84943;SDS011;75231;53.650;9.788;2024-02-28T01:34:06;29.27;;;13.68;;
84943;SDS011;75231;53.650;9.788;2024-02-28T01:36:32;29.08;;;14.18;;
84943;SDS011;75231;53.650;9.788;2024-02-28T01:38:57;30.33;;;13.38;;
84943;SDS011;75231;53.650;9.788;2024-02-28T01:41:23;31.77;;;13.77;;
84943;SDS011;75231;53.650;9.788;2024-02-28T01:43:48;30.73;;;14.18;;
84943;SDS011;75231;53.650;9.788;2024-02-28T01:46:24;29.70;;;14.10;;
84943;SDS011;75231;53.650;9.788;2024-02-28T01:48:52;29.73;;;14.13;;
84943;SDS011;75231;53.650;9.788;2024-02-28T01:51:18;32.60;;;14.88;;
84943;SDS011;75231;53.650;9.788;2024-02-28T01:53:44;29.50;;;14.82;;
84943;SDS011;75231;53.650;9.788;2024-02-28T01:56:11;29.98;;;14.30;;
84943;SDS011;75231;53.650;9.788;2024-02-28T01:58:39;28.63;;;13.48;;
84943;SDS011;75231;53.650;9.788;2024-02-28T02:01:04;28.83;;;13.60;;
84943;SDS011;75231;53.650;9.788;2024-02-28T02:03:31;26.48;;;12.63;;
84943;SDS011;75231;53.650;9.788;2024-02-28T02:05:59;26.00;;;12.50;;
84943;SDS011;75231;53.650;9.788;2024-02-28T02:08:26;27.48;;;13.07;;
84943;SDS011;75231;53.650;9.788;2024-02-28T02:10:51;23.95;;;11.95;;
84943;SDS011;75231;53.650;9.788;2024-02-28T02:13:17;25.80;;;12.48;;
84943;SDS011;75231;53.650;9.788;2024-02-28T02:15:42;27.98;;;12.75;;
84943;SDS011;75231;53.650;9.788;2024-02-28T02:18:07;22.80;;;12.15;;
84943;SDS011;75231;53.650;9.788;2024-02-28T02:20:32;26.63;;;13.07;;
84943;SDS011;75231;53.650;9.788;2024-02-28T02:23:04;24.77;;;13.10;;
84943;SDS011;75231;53.650;9.788;2024-02-28T02:25:29;28.40;;;11.73;;
84943;SDS011;75231;53.650;9.788;2024-02-28T02:27:55;29.50;;;12.77;;
84943;SDS011;75231;53.650;9.788;2024-02-28T02:30:20;28.02;;;12.88;;
84943;SDS011;75231;53.650;9.788;2024-02-28T02:32:45;25.20;;;11.68;;
84943;SDS011;75231;53.650;9.788;2024-02-28T02:35:10;22.42;;;11.13;;
84943;SDS011;75231;53.650;9.788;2024-02-28T02:37:36;24.52;;;11.73;;
84943;SDS011;75231;53.650;9.788;2024-02-28T02:40:01;23.52;;;11.13;;
84943;SDS011;75231;53.650;9.788;2024-02-28T02:42:26;25.52;;;11.52;;
84943;SDS011;75231;53.650;9.788;2024-02-28T02:44:52;24.05;;;11.57;;
84943;SDS011;75231;53.650;9.788;2024-02-28T02:47:17;26.58;;;12.77;;
84943;SDS011;75231;53.650;9.788;2024-02-28T02:49:42;24.75;;;12.00;;
84943;SDS011;75231;53.650;9.788;2024-02-28T02:52:08;25.77;;;11.57;;
84943;SDS011;75231;53.650;9.788;2024-02-28T02:54:33;23.40;;;12.43;;
84943;SDS011;75231;53.650;9.788;2024-02-28T02:56:58;25.83;;;12.50;;
84943;SDS011;75231;53.650;9.788;2024-02-28T02:59:24;26.75;;;11.52;;
84943;SDS011;75231;53.650;9.788;2024-02-28T03:01:49;25.42;;;11.25;;
84943;SDS011;75231;53.650;9.788;2024-02-28T03:06:40;25.00;;;13.13;;
84943;SDS011;75231;53.650;9.788;2024-02-28T03:09:05;24.88;;;11.70;;
84943;SDS011;75231;53.650;9.788;2024-02-28T03:11:32;30.20;;;12.90;;
84943;SDS011;75231;53.650;9.788;2024-02-28T03:14:00;27.45;;;13.65;;
84943;SDS011;75231;53.650;9.788;2024-02-28T03:16:25;26.70;;;12.23;;
84943;SDS011;75231;53.650;9.788;2024-02-28T03:21:15;24.95;;;11.95;;
84943;SDS011;75231;53.650;9.788;2024-02-28T03:23:42;25.48;;;12.07;;
84943;SDS011;75231;53.650;9.788;2024-02-28T03:28:32;24.23;;;11.93;;
84943;SDS011;75231;53.650;9.788;2024-02-28T03:30:57;25.02;;;11.13;;
84943;SDS011;75231;53.650;9.788;2024-02-28T03:33:23;26.13;;;11.45;;
84943;SDS011;75231;53.650;9.788;2024-02-28T03:35:49;22.70;;;11.85;;
84943;SDS011;75231;53.650;9.788;2024-02-28T03:40:40;23.23;;;11.10;;
84943;SDS011;75231;53.650;9.788;2024-02-28T03:45:31;23.52;;;11.43;;
84943;SDS011;75231;53.650;9.788;2024-02-28T03:48:02;26.65;;;12.88;;
84943;SDS011;75231;53.650;9.788;2024-02-28T03:52:54;24.00;;;12.00;;
84943;SDS011;75231;53.650;9.788;2024-02-28T03:55:19;31.25;;;13.10;;
84943;SDS011;75231;53.650;9.788;2024-02-28T04:00:14;23.38;;;11.10;;
84943;SDS011;75231;53.650;9.788;2024-02-28T04:02:40;25.50;;;12.35;;
84943;SDS011;75231;53.650;9.788;2024-02-28T04:05:05;27.05;;;12.77;;
84943;SDS011;75231;53.650;9.788;2024-02-28T04:07:31;26.92;;;13.50;;
84943;SDS011;75231;53.650;9.788;2024-02-28T04:09:56;25.30;;;12.82;;
84943;SDS011;75231;53.650;9.788;2024-02-28T04:12:21;27.58;;;13.23;;
84943;SDS011;75231;53.650;9.788;2024-02-28T04:14:46;26.67;;;12.57;;
84943;SDS011;75231;53.650;9.788;2024-02-28T04:19:37;25.47;;;11.67;;
84943;SDS011;75231;53.650;9.788;2024-02-28T04:22:04;27.83;;;12.85;;
84943;SDS011;75231;53.650;9.788;2024-02-28T04:24:29;30.45;;;15.25;;
84943;SDS011;75231;53.650;9.788;2024-02-28T04:26:54;28.50;;;12.18;;
84943;SDS011;75231;53.650;9.788;2024-02-28T04:29:20;30.70;;;14.35;;
84943;SDS011;75231;53.650;9.788;2024-02-28T04:31:45;31.70;;;14.30;;
84943;SDS011;75231;53.650;9.788;2024-02-28T04:34:10;31.50;;;13.93;;
84943;SDS011;75231;53.650;9.788;2024-02-28T04:36:36;30.00;;;12.82;;
84943;SDS011;75231;53.650;9.788;2024-02-28T04:39:01;31.17;;;13.10;;
84943;SDS011;75231;53.650;9.788;2024-02-28T04:41:27;29.35;;;13.75;;
84943;SDS011;75231;53.650;9.788;2024-02-28T04:43:53;30.60;;;12.80;;
84943;SDS011;75231;53.650;9.788;2024-02-28T04:46:18;27.83;;;13.23;;
84943;SDS011;75231;53.650;9.788;2024-02-28T04:48:43;28.38;;;12.82;;
84943;SDS011;75231;53.650;9.788;2024-02-28T04:51:08;31.10;;;12.73;;
84943;SDS011;75231;53.650;9.788;2024-02-28T04:53:34;28.95;;;12.70;;
84943;SDS011;75231;53.650;9.788;2024-02-28T04:55:59;30.42;;;13.70;;
84943;SDS011;75231;53.650;9.788;2024-02-28T04:58:25;30.83;;;13.98;;
84943;SDS011;75231;53.650;9.788;2024-02-28T05:00:50;28.38;;;13.32;;
84943;SDS011;75231;53.650;9.788;2024-02-28T05:05:41;30.13;;;13.52;;
84943;SDS011;75231;53.650;9.788;2024-02-28T05:08:07;28.25;;;13.10;;
84943;SDS011;75231;53.650;9.788;2024-02-28T05:10:32;31.10;;;14.15;;
84943;SDS011;75231;53.650;9.788;2024-02-28T05:12:59;29.85;;;14.52;;
84943;SDS011;75231;53.650;9.788;2024-02-28T05:15:24;30.13;;;14.38;;
84943;SDS011;75231;53.650;9.788;2024-02-28T05:17:50;31.17;;;14.07;;
84943;SDS011;75231;53.650;9.788;2024-02-28T05:20:16;28.45;;;13.95;;
84943;SDS011;75231;53.650;9.788;2024-02-28T05:22:42;31.42;;;13.00;;
84943;SDS011;75231;53.650;9.788;2024-02-28T05:25:07;32.85;;;13.77;;
84943;SDS011;75231;53.650;9.788;2024-02-28T05:27:33;27.42;;;13.82;;
84943;SDS011;75231;53.650;9.788;2024-02-28T05:29:58;33.70;;;14.13;;
84943;SDS011;75231;53.650;9.788;2024-02-28T05:32:25;29.13;;;14.45;;
84943;SDS011;75231;53.650;9.788;2024-02-28T05:34:51;30.40;;;14.82;;
84943;SDS011;75231;53.650;9.788;2024-02-28T05:37:16;32.25;;;14.18;;
84943;SDS011;75231;53.650;9.788;2024-02-28T05:39:42;32.38;;;14.88;;
84943;SDS011;75231;53.650;9.788;2024-02-28T05:42:07;34.00;;;13.80;;
84943;SDS011;75231;53.650;9.788;2024-02-28T05:46:59;27.63;;;13.53;;
84943;SDS011;75231;53.650;9.788;2024-02-28T05:49:25;30.08;;;13.73;;
84943;SDS011;75231;53.650;9.788;2024-02-28T05:51:50;34.17;;;15.38;;
84943;SDS011;75231;53.650;9.788;2024-02-28T05:54:15;33.22;;;14.85;;
84943;SDS011;75231;53.650;9.788;2024-02-28T05:56:41;33.92;;;15.65;;
84943;SDS011;75231;53.650;9.788;2024-02-28T05:59:06;34.95;;;14.40;;
84943;SDS011;75231;53.650;9.788;2024-02-28T06:01:31;27.05;;;13.65;;
84943;SDS011;75231;53.650;9.788;2024-02-28T06:03:57;32.72;;;17.33;;
84943;SDS011;75231;53.650;9.788;2024-02-28T06:06:22;34.03;;;14.88;;
84943;SDS011;75231;53.650;9.788;2024-02-28T06:08:47;31.05;;;15.07;;
84943;SDS011;75231;53.650;9.788;2024-02-28T06:11:13;34.05;;;15.98;;
84943;SDS011;75231;53.650;9.788;2024-02-28T06:13:40;34.47;;;15.63;;
84943;SDS011;75231;53.650;9.788;2024-02-28T06:16:06;35.00;;;15.00;;
84943;SDS011;75231;53.650;9.788;2024-02-28T06:18:31;33.17;;;15.73;;
84943;SDS011;75231;53.650;9.788;2024-02-28T06:20:58;33.10;;;14.70;;
84943;SDS011;75231;53.650;9.788;2024-02-28T06:23:23;31.23;;;14.38;;
84943;SDS011;75231;53.650;9.788;2024-02-28T06:25:49;29.02;;;13.45;;
84943;SDS011;75231;53.650;9.788;2024-02-28T06:28:14;34.20;;;15.45;;
84943;SDS011;75231;53.650;9.788;2024-02-28T06:30:40;36.28;;;15.77;;
84943;SDS011;75231;53.650;9.788;2024-02-28T06:33:05;30.17;;;14.80;;
84943;SDS011;75231;53.650;9.788;2024-02-28T06:35:31;32.50;;;15.00;;
84943;SDS011;75231;53.650;9.788;2024-02-28T06:37:56;30.55;;;14.40;;
84943;SDS011;75231;53.650;9.788;2024-02-28T06:40:21;32.47;;;15.27;;
84943;SDS011;75231;53.650;9.788;2024-02-28T06:42:47;33.33;;;14.55;;
84943;SDS011;75231;53.650;9.788;2024-02-28T06:45:12;34.22;;;15.98;;
84943;SDS011;75231;53.650;9.788;2024-02-28T06:47:37;31.75;;;15.50;;
84943;SDS011;75231;53.650;9.788;2024-02-28T06:50:03;29.88;;;13.05;;
84943;SDS011;75231;53.650;9.788;2024-02-28T06:52:30;25.38;;;12.73;;
84943;SDS011;75231;53.650;9.788;2024-02-28T06:54:55;28.55;;;14.32;;
84943;SDS011;75231;53.650;9.788;2024-02-28T06:57:21;30.90;;;14.43;;
84943;SDS011;75231;53.650;9.788;2024-02-28T06:59:46;27.23;;;13.80;;
84943;SDS011;75231;53.650;9.788;2024-02-28T07:02:11;25.67;;;14.15;;
84943;SDS011;75231;53.650;9.788;2024-02-28T07:04:37;27.67;;;13.65;;
84943;SDS011;75231;53.650;9.788;2024-02-28T07:07:03;25.05;;;12.82;;
84943;SDS011;75231;53.650;9.788;2024-02-28T07:09:29;26.08;;;13.25;;
84943;SDS011;75231;53.650;9.788;2024-02-28T07:11:57;27.33;;;13.73;;
84943;SDS011;75231;53.650;9.788;2024-02-28T07:14:22;25.67;;;13.27;;
84943;SDS011;75231;53.650;9.788;2024-02-28T07:16:48;28.95;;;13.30;;
84943;SDS011;75231;53.650;9.788;2024-02-28T07:19:13;23.45;;;11.98;;
84943;SDS011;75231;53.650;9.788;2024-02-28T07:21:38;26.90;;;12.65;;
84943;SDS011;75231;53.650;9.788;2024-02-28T07:24:03;25.02;;;12.30;;
84943;SDS011;75231;53.650;9.788;2024-02-28T07:26:30;25.98;;;13.50;;
84943;SDS011;75231;53.650;9.788;2024-02-28T07:28:56;24.15;;;13.40;;
84943;SDS011;75231;53.650;9.788;2024-02-28T07:31:21;23.70;;;12.48;;
84943;SDS011;75231;53.650;9.788;2024-02-28T07:33:47;25.67;;;13.68;;
84943;SDS011;75231;53.650;9.788;2024-02-28T07:36:12;28.13;;;14.27;;
84943;SDS011;75231;53.650;9.788;2024-02-28T07:38:38;25.27;;;12.15;;
84943;SDS011;75231;53.650;9.788;2024-02-28T07:41:03;28.70;;;13.98;;
84943;SDS011;75231;53.650;9.788;2024-02-28T07:43:29;24.33;;;12.93;;
84943;SDS011;75231;53.650;9.788;2024-02-28T07:45:58;26.40;;;13.75;;
84943;SDS011;75231;53.650;9.788;2024-02-28T07:48:23;24.50;;;12.48;;
84943;SDS011;75231;53.650;9.788;2024-02-28T07:50:49;27.20;;;13.75;;
84943;SDS011;75231;53.650;9.788;2024-02-28T07:53:14;26.77;;;13.75;;
84943;SDS011;75231;53.650;9.788;2024-02-28T07:55:42;28.27;;;13.55;;
84943;SDS011;75231;53.650;9.788;2024-02-28T07:58:08;29.35;;;13.98;;
84943;SDS011;75231;53.650;9.788;2024-02-28T08:02:59;27.57;;;15.00;;
84943;SDS011;75231;53.650;9.788;2024-02-28T08:05:24;27.25;;;13.38;;
84943;SDS011;75231;53.650;9.788;2024-02-28T08:07:51;31.58;;;15.18;;
84943;SDS011;75231;53.650;9.788;2024-02-28T08:10:17;29.17;;;14.63;;
84943;SDS011;75231;53.650;9.788;2024-02-28T08:12:42;26.13;;;14.02;;
84943;SDS011;75231;53.650;9.788;2024-02-28T08:17:33;31.70;;;15.90;;
84943;SDS011;75231;53.650;9.788;2024-02-28T08:22:24;27.77;;;14.88;;
84943;SDS011;75231;53.650;9.788;2024-02-28T08:27:22;32.45;;;15.10;;
84943;SDS011;75231;53.650;9.788;2024-02-28T08:32:14;29.52;;;15.00;;
84943;SDS011;75231;53.650;9.788;2024-02-28T08:34:43;33.38;;;16.55;;
84943;SDS011;75231;53.650;9.788;2024-02-28T08:37:10;30.83;;;15.77;;
84943;SDS011;75231;53.650;9.788;2024-02-28T08:39:35;34.78;;;15.52;;
84943;SDS011;75231;53.650;9.788;2024-02-28T08:42:00;39.03;;;17.00;;
84943;SDS011;75231;53.650;9.788;2024-02-28T08:44:35;38.58;;;16.90;;
84943;SDS011;75231;53.650;9.788;2024-02-28T08:47:00;35.55;;;16.30;;
84943;SDS011;75231;53.650;9.788;2024-02-28T08:49:25;36.53;;;16.90;;
84943;SDS011;75231;53.650;9.788;2024-02-28T08:51:51;32.88;;;16.33;;
84943;SDS011;75231;53.650;9.788;2024-02-28T08:56:42;35.60;;;16.63;;
84943;SDS011;75231;53.650;9.788;2024-02-28T08:59:07;29.05;;;15.35;;
84943;SDS011;75231;53.650;9.788;2024-02-28T09:01:32;34.28;;;16.25;;
84943;SDS011;75231;53.650;9.788;2024-02-28T09:03:59;29.45;;;15.20;;
84943;SDS011;75231;53.650;9.788;2024-02-28T09:06:25;32.38;;;16.80;;
84943;SDS011;75231;53.650;9.788;2024-02-28T09:08:50;32.33;;;16.38;;
84943;SDS011;75231;53.650;9.788;2024-02-28T09:13:40;33.03;;;15.20;;
84943;SDS011;75231;53.650;9.788;2024-02-28T09:18:35;31.60;;;14.82;;
84943;SDS011;75231;53.650;9.788;2024-02-28T09:21:00;32.72;;;16.23;;
84943;SDS011;75231;53.650;9.788;2024-02-28T09:23:26;26.20;;;14.35;;
84943;SDS011;75231;53.650;9.788;2024-02-28T09:28:16;33.00;;;16.60;;
84943;SDS011;75231;53.650;9.788;2024-02-28T09:33:08;35.58;;;16.38;;
84943;SDS011;75231;53.650;9.788;2024-02-28T09:35:34;34.25;;;16.52;;
84943;SDS011;75231;53.650;9.788;2024-02-28T09:40:25;30.65;;;16.20;;
84943;SDS011;75231;53.650;9.788;2024-02-28T09:45:22;30.15;;;15.20;;
84943;SDS011;75231;53.650;9.788;2024-02-28T09:47:49;31.60;;;15.23;;
84943;SDS011;75231;53.650;9.788;2024-02-28T09:50:15;30.90;;;15.07;;
84943;SDS011;75231;53.650;9.788;2024-02-28T09:55:06;34.00;;;15.90;;
84943;SDS011;75231;53.650;9.788;2024-02-28T10:00:00;26.45;;;14.20;;
84943;SDS011;75231;53.650;9.788;2024-02-28T10:02:30;26.13;;;13.75;;
84943;SDS011;75231;53.650;9.788;2024-02-28T10:04:56;29.10;;;15.00;;
84943;SDS011;75231;53.650;9.788;2024-02-28T10:07:23;32.33;;;15.68;;
84943;SDS011;75231;53.650;9.788;2024-02-28T10:12:15;29.73;;;14.33;;
84943;SDS011;75231;53.650;9.788;2024-02-28T10:14:44;30.50;;;16.33;;
84943;SDS011;75231;53.650;9.788;2024-02-28T10:17:09;28.08;;;14.45;;
84943;SDS011;75231;53.650;9.788;2024-02-28T10:22:00;27.63;;;13.85;;
84943;SDS011;75231;53.650;9.788;2024-02-28T10:26:50;31.52;;;14.70;;
84943;SDS011;75231;53.650;9.788;2024-02-28T10:29:25;29.70;;;14.60;;
84943;SDS011;75231;53.650;9.788;2024-02-28T10:31:56;29.92;;;15.20;;
84943;SDS011;75231;53.650;9.788;2024-02-28T10:34:21;27.52;;;15.05;;
84943;SDS011;75231;53.650;9.788;2024-02-28T10:36:47;30.95;;;15.50;;
84943;SDS011;75231;53.650;9.788;2024-02-28T10:39:12;30.20;;;14.77;;
84943;SDS011;75231;53.650;9.788;2024-02-28T10:41:38;26.85;;;14.00;;
84943;SDS011;75231;53.650;9.788;2024-02-28T10:46:32;27.17;;;13.60;;
84943;SDS011;75231;53.650;9.788;2024-02-28T10:49:02;27.90;;;13.55;;
84943;SDS011;75231;53.650;9.788;2024-02-28T10:51:36;27.75;;;14.93;;
84943;SDS011;75231;53.650;9.788;2024-02-28T10:54:08;26.20;;;13.73;;
84943;SDS011;75231;53.650;9.788;2024-02-28T10:56:36;26.95;;;14.18;;
84943;SDS011;75231;53.650;9.788;2024-02-28T10:59:02;30.02;;;14.45;;
84943;SDS011;75231;53.650;9.788;2024-02-28T11:01:32;27.30;;;15.00;;
84943;SDS011;75231;53.650;9.788;2024-02-28T11:03:59;27.08;;;15.32;;
84943;SDS011;75231;53.650;9.788;2024-02-28T11:08:51;27.08;;;14.32;;
84943;SDS011;75231;53.650;9.788;2024-02-28T11:11:21;23.42;;;13.30;;
84943;SDS011;75231;53.650;9.788;2024-02-28T11:13:54;26.25;;;14.80;;
84943;SDS011;75231;53.650;9.788;2024-02-28T11:16:27;28.27;;;13.32;;
84943;SDS011;75231;53.650;9.788;2024-02-28T11:18:52;27.45;;;15.07;;
84943;SDS011;75231;53.650;9.788;2024-02-28T11:23:47;26.83;;;14.65;;
84943;SDS011;75231;53.650;9.788;2024-02-28T11:26:13;27.58;;;13.90;;
84943;SDS011;75231;53.650;9.788;2024-02-28T11:31:04;29.00;;;14.13;;
84943;SDS011;75231;53.650;9.788;2024-02-28T11:35:59;33.03;;;15.57;;
84943;SDS011;75231;53.650;9.788;2024-02-28T11:38:27;29.67;;;14.43;;
84943;SDS011;75231;53.650;9.788;2024-02-28T11:40:52;30.05;;;14.45;;
84943;SDS011;75231;53.650;9.788;2024-02-28T11:43:18;28.83;;;13.95;;
84943;SDS011;75231;53.650;9.788;2024-02-28T11:45:44;33.72;;;15.43;;
84943;SDS011;75231;53.650;9.788;2024-02-28T11:48:11;32.95;;;14.82;;
84943;SDS011;75231;53.650;9.788;2024-02-28T11:50:38;23.58;;;12.70;;
84943;SDS011;75231;53.650;9.788;2024-02-28T11:55:30;29.98;;;13.75;;
84943;SDS011;75231;53.650;9.788;2024-02-28T12:00:27;26.40;;;12.25;;
84943;SDS011;75231;53.650;9.788;2024-02-28T12:02:52;22.98;;;12.32;;
84943;SDS011;75231;53.650;9.788;2024-02-28T12:05:28;24.42;;;12.02;;
84943;SDS011;75231;53.650;9.788;2024-02-28T12:10:20;24.35;;;11.35;;
84943;SDS011;75231;53.650;9.788;2024-02-28T12:12:47;21.67;;;10.45;;
84943;SDS011;75231;53.650;9.788;2024-02-28T12:15:14;26.88;;;12.73;;
84943;SDS011;75231;53.650;9.788;2024-02-28T12:17:42;27.08;;;12.43;;
84943;SDS011;75231;53.650;9.788;2024-02-28T12:20:08;26.65;;;14.68;;
84943;SDS011;75231;53.650;9.788;2024-02-28T12:24:59;27.42;;;12.85;;
84943;SDS011;75231;53.650;9.788;2024-02-28T12:27:29;26.35;;;12.65;;
84943;SDS011;75231;53.650;9.788;2024-02-28T12:29:56;27.80;;;11.68;;
84943;SDS011;75231;53.650;9.788;2024-02-28T12:32:21;23.98;;;12.68;;
84943;SDS011;75231;53.650;9.788;2024-02-28T12:34:46;29.67;;;13.77;;
84943;SDS011;75231;53.650;9.788;2024-02-28T12:37:12;25.42;;;12.40;;
84943;SDS011;75231;53.650;9.788;2024-02-28T12:39:37;28.92;;;14.43;;
84943;SDS011;75231;53.650;9.788;2024-02-28T12:42:02;28.50;;;13.57;;
84943;SDS011;75231;53.650;9.788;2024-02-28T12:46:56;27.57;;;13.67;;
84943;SDS011;75231;53.650;9.788;2024-02-28T12:49:22;29.90;;;13.63;;
84943;SDS011;75231;53.650;9.788;2024-02-28T12:54:14;27.27;;;14.43;;
84943;SDS011;75231;53.650;9.788;2024-02-28T12:59:08;29.17;;;14.68;;
84943;SDS011;75231;53.650;9.788;2024-02-28T13:03:59;29.40;;;13.23;;
84943;SDS011;75231;53.650;9.788;2024-02-28T13:08:49;24.30;;;12.43;;
84943;SDS011;75231;53.650;9.788;2024-02-28T13:11:18;27.88;;;13.25;;
84943;SDS011;75231;53.650;9.788;2024-02-28T13:13:45;28.48;;;13.98;;
84943;SDS011;75231;53.650;9.788;2024-02-28T13:16:29;24.15;;;12.35;;
84943;SDS011;75231;53.650;9.788;2024-02-28T13:18:55;31.17;;;14.85;;
84943;SDS011;75231;53.650;9.788;2024-02-28T13:23:46;27.27;;;12.73;;
84943;SDS011;75231;53.650;9.788;2024-02-28T13:26:11;26.95;;;12.30;;
84943;SDS011;75231;53.650;9.788;2024-02-28T13:28:42;28.42;;;13.90;;
84943;SDS011;75231;53.650;9.788;2024-02-28T13:31:08;29.55;;;13.38;;
84943;SDS011;75231;53.650;9.788;2024-02-28T13:36:01;31.63;;;14.30;;
84943;SDS011;75231;53.650;9.788;2024-02-28T13:38:28;30.95;;;13.45;;
84943;SDS011;75231;53.650;9.788;2024-02-28T13:40:54;29.70;;;14.75;;
84943;SDS011;75231;53.650;9.788;2024-02-28T13:49:09;31.92;;;13.38;;
84943;SDS011;75231;53.650;9.788;2024-02-28T13:51:35;27.60;;;12.85;;
84943;SDS011;75231;53.650;9.788;2024-02-28T13:54:01;34.55;;;13.40;;
84943;SDS011;75231;53.650;9.788;2024-02-28T13:56:27;31.85;;;14.38;;
84943;SDS011;75231;53.650;9.788;2024-02-28T14:01:21;27.15;;;11.52;;
84943;SDS011;75231;53.650;9.788;2024-02-28T14:06:14;25.67;;;10.40;;
84943;SDS011;75231;53.650;9.788;2024-02-28T14:08:39;24.08;;;12.00;;
84943;SDS011;75231;53.650;9.788;2024-02-28T14:13:30;28.27;;;12.98;;
84943;SDS011;75231;53.650;9.788;2024-02-28T14:15:55;26.73;;;11.65;;
84943;SDS011;75231;53.650;9.788;2024-02-28T14:18:20;28.02;;;13.32;;
84943;SDS011;75231;53.650;9.788;2024-02-28T14:20:46;26.55;;;12.77;;
84943;SDS011;75231;53.650;9.788;2024-02-28T14:23:11;24.85;;;12.25;;
84943;SDS011;75231;53.650;9.788;2024-02-28T14:25:37;24.40;;;13.10;;
84943;SDS011;75231;53.650;9.788;2024-02-28T14:28:02;27.33;;;13.15;;
84943;SDS011;75231;53.650;9.788;2024-02-28T14:30:27;26.55;;;12.52;;
84943;SDS011;75231;53.650;9.788;2024-02-28T14:32:53;25.35;;;11.57;;
84943;SDS011;75231;53.650;9.788;2024-02-28T14:35:19;23.90;;;10.75;;
84943;SDS011;75231;53.650;9.788;2024-02-28T14:37:44;24.50;;;10.80;;
84943;SDS011;75231;53.650;9.788;2024-02-28T14:42:38;20.23;;;9.50;;
84943;SDS011;75231;53.650;9.788;2024-02-28T14:45:05;19.92;;;12.25;;
84943;SDS011;75231;53.650;9.788;2024-02-28T14:47:32;22.83;;;11.65;;
84943;SDS011;75231;53.650;9.788;2024-02-28T14:52:22;22.60;;;11.40;;
84943;SDS011;75231;53.650;9.788;2024-02-28T14:57:13;23.70;;;11.98;;
84943;SDS011;75231;53.650;9.788;2024-02-28T14:59:40;24.38;;;12.05;;
84943;SDS011;75231;53.650;9.788;2024-02-28T15:02:06;21.27;;;10.55;;
84943;SDS011;75231;53.650;9.788;2024-02-28T15:04:31;22.05;;;11.73;;
84943;SDS011;75231;53.650;9.788;2024-02-28T15:06:56;22.83;;;10.65;;
84943;SDS011;75231;53.650;9.788;2024-02-28T15:09:22;19.50;;;10.77;;
84943;SDS011;75231;53.650;9.788;2024-02-28T15:14:13;19.88;;;10.40;;
84943;SDS011;75231;53.650;9.788;2024-02-28T15:16:39;19.75;;;9.95;;
84943;SDS011;75231;53.650;9.788;2024-02-28T15:19:04;21.75;;;9.80;;
84943;SDS011;75231;53.650;9.788;2024-02-28T15:23:55;23.90;;;11.43;;
84943;SDS011;75231;53.650;9.788;2024-02-28T15:26:20;20.38;;;11.45;;
84943;SDS011;75231;53.650;9.788;2024-02-28T15:28:45;22.90;;;10.45;;
84943;SDS011;75231;53.650;9.788;2024-02-28T15:31:10;20.30;;;10.55;;
84943;SDS011;75231;53.650;9.788;2024-02-28T15:33:36;20.63;;;10.55;;
84943;SDS011;75231;53.650;9.788;2024-02-28T15:36:01;21.15;;;10.00;;
84943;SDS011;75231;53.650;9.788;2024-02-28T15:38:28;21.58;;;11.70;;
84943;SDS011;75231;53.650;9.788;2024-02-28T15:43:19;26.83;;;11.93;;
84943;SDS011;75231;53.650;9.788;2024-02-28T15:48:10;27.33;;;11.77;;
84943;SDS011;75231;53.650;9.788;2024-02-28T15:53:01;24.75;;;11.07;;
84943;SDS011;75231;53.650;9.788;2024-02-28T15:55:27;25.50;;;12.20;;
84943;SDS011;75231;53.650;9.788;2024-02-28T16:00:20;27.08;;;13.00;;
84943;SDS011;75231;53.650;9.788;2024-02-28T16:05:10;27.87;;;12.53;;
84943;SDS011;75231;53.650;9.788;2024-02-28T16:10:01;28.40;;;12.60;;
84943;SDS011;75231;53.650;9.788;2024-02-28T16:14:58;32.65;;;13.27;;
84943;SDS011;75231;53.650;9.788;2024-02-28T16:17:23;33.78;;;13.63;;
84943;SDS011;75231;53.650;9.788;2024-02-28T16:19:50;31.33;;;13.90;;
84943;SDS011;75231;53.650;9.788;2024-02-28T16:24:45;26.63;;;12.27;;
84943;SDS011;75231;53.650;9.788;2024-02-28T16:29:36;31.50;;;13.50;;
84943;SDS011;75231;53.650;9.788;2024-02-28T16:32:01;29.45;;;13.90;;
84943;SDS011;75231;53.650;9.788;2024-02-28T16:34:30;33.92;;;14.90;;
84943;SDS011;75231;53.650;9.788;2024-02-28T16:39:22;33.45;;;15.15;;
84943;SDS011;75231;53.650;9.788;2024-02-28T16:41:48;31.27;;;14.45;;
84943;SDS011;75231;53.650;9.788;2024-02-28T16:46:38;30.30;;;12.43;;
84943;SDS011;75231;53.650;9.788;2024-02-28T16:51:29;29.10;;;14.55;;
84943;SDS011;75231;53.650;9.788;2024-02-28T16:56:20;30.93;;;16.37;;